This is the latest recevied weather packets stored in our database for station/object EA3AGY-13. If no packets are shown the sender has not sent any weather packets the latest 10 day(s).
| Time | Temp. | Humidity | Pressure | Rain* | Wind** | Luminosity | Snow |
|---|---|---|---|---|---|---|---|
| 1777439203 | 9.44° C | 35% | 1011.8 hPa | 0 mm | - | - | - |
| 1777438601 | 8.33° C | 36% | 1011.8 hPa | 0 mm | - | - | - |
| 1777437396 | 8.89° C | 36% | 1011.8 hPa | 0 mm | - | - | - |
| 1777436191 | 8.89° C | 36% | 1012 hPa | 0 mm | - | - | - |
| 1777435589 | 8.89° C | 36% | 1012 hPa | 0 mm | - | - | - |
| 1777434987 | 8.89° C | 36% | 1012 hPa | 0 mm | - | - | - |
| 1777434384 | 8.89° C | 36% | 1011.9 hPa | 0 mm | - | - | - |
| 1777433181 | 7.78° C | 39% | 1011.9 hPa | 0 mm | - | - | - |
| 1777430168 | 8.89° C | 39% | 1012.4 hPa | 0 mm | - | - | - |
| 1777428361 | 8.89° C | 34% | 1012.5 hPa | 0 mm | - | - | - |
| 1777427759 | 8.89° C | 35% | 1012.5 hPa | 0 mm | - | - | - |
| 1777426554 | 9.44° C | 35% | 1012.5 hPa | 0 mm | - | - | - |
| 1777425349 | 9.44° C | 35% | 1012.7 hPa | 0 mm | - | - | - |
| 1777421737 | 9.44° C | 33% | 1013 hPa | 0 mm | - | - | - |
| 1777421132 | 8.89° C | 36% | 1013 hPa | 0 mm | - | - | - |
| 1777420530 | 8.89° C | 37% | 1013.1 hPa | 0 mm | - | - | - |
| 1777418723 | 9.44° C | 38% | 1013 hPa | 0 mm | - | - | - |
| 1777417519 | 8.89° C | 38% | 1013.1 hPa | 0 mm | - | - | - |
| 1777415108 | 8.89° C | 35% | 1013 hPa | 0 mm | - | - | - |
| 1777413904 | 9.44° C | 35% | 1012.8 hPa | 0 mm | - | - | - |
| 1777413304 | 9.44° C | 34% | 1012.9 hPa | 0 mm | - | - | - |
| 1777412699 | 9.44° C | 34% | 1012.9 hPa | 0 mm | - | - | - |
| 1777411494 | 9.44° C | 38% | 1012.8 hPa | 0 mm | - | - | - |
| 1777407278 | 7.78° C | 42% | 1012.6 hPa | 0 mm | - | - | - |
| 1777405470 | 9.44° C | 31% | 1012.5 hPa | 0 mm | - | - | - |
* Rain since midnight (hover to see other rain measurements)
** Current wind speed in m/s (hover to see current wind gust speed)